Time;durP1;ratioP1;P1;durP2;ratioP2;P2;SDS_P1;SDS_P2;PMS_P1;PMS_P2;Temp;Humidity;BMP_temperature;BMP_pressure;BME280_temperature;BME280_humidity;BME280_pressure;Samples;Min_cycle;Max_cycle;Signal;HPM_P1;HPM_P2
2021/01/21 00:01:42;;;;;;;8.77;2.67;;;;;;;-9.81;51.69;99276.41;10456668;28;20052;-49
2021/01/21 00:06:44;;;;;;;7.30;1.80;;;;;;;-9.78;51.73;99278.94;10457435;28;20139;-58
2021/01/21 00:11:46;;;;;;;8.37;3.20;;;;;;;-9.86;52.04;99267.97;10459446;28;20053;-49
2021/01/21 00:16:48;;;;;;;4.10;1.53;;;;;;;-9.97;52.54;99265.56;10456604;28;20041;-47
2021/01/21 00:21:50;;;;;;;6.57;2.25;;;;;;;-10.02;52.24;99266.44;10455066;28;20098;-48
2021/01/21 00:26:51;;;;;;;6.43;2.67;;;;;;;-9.97;51.81;99269.81;10456073;28;20501;-49
2021/01/21 00:31:54;;;;;;;7.27;2.37;;;;;;;-10.00;52.57;99263.03;10454881;28;20063;-47
2021/01/21 00:36:56;;;;;;;3.83;1.08;;;;;;;-10.02;53.16;99253.75;10455867;28;20486;-49
2021/01/21 00:41:57;;;;;;;5.67;2.30;;;;;;;-9.90;53.18;99265.50;10456194;28;20064;-49
2021/01/21 00:47:00;;;;;;;4.88;1.70;;;;;;;-9.88;52.84;99259.53;10471223;28;20040;-47
2021/01/21 00:52:01;;;;;;;5.47;1.70;;;;;;;-9.91;52.98;99241.78;10529022;28;20092;-52
2021/01/21 00:57:03;;;;;;;8.20;2.40;;;;;;;-9.90;53.33;99243.44;10495145;28;20055;-48
2021/01/21 01:02:06;;;;;;;5.57;1.80;;;;;;;-9.98;53.44;99240.97;10463879;28;20064;-48
2021/01/21 01:07:08;;;;;;;8.50;2.58;;;;;;;-10.00;53.63;99229.16;10453610;28;20471;-49
2021/01/21 01:12:10;;;;;;;11.33;3.37;;;;;;;-9.96;52.94;99233.34;10454312;28;20468;-47
2021/01/21 01:17:14;;;;;;;;;;;;;;;-9.90;53.48;99228.19;10454259;28;20055;-50
2021/01/21 01:22:22;;;;;;;9.43;2.43;;;;;;;-9.83;53.02;99234.06;10453832;28;20416;-47
2021/01/21 01:27:24;;;;;;;5.40;2.30;;;;;;;-9.80;52.83;99222.13;10454304;28;20052;-48
2021/01/21 01:32:27;;;;;;;6.73;2.70;;;;;;;-9.73;52.21;99235.63;10453998;28;20413;-48
2021/01/21 01:37:31;;;;;;;11.50;2.73;;;;;;;-9.71;52.85;99217.81;10453547;28;20469;-51
2021/01/21 01:42:41;;;;;;;9.10;2.88;;;;;;;-9.71;52.61;99207.66;10455243;28;20052;-49
2021/01/21 01:47:47;;;;;;;10.73;2.30;;;;;;;-9.74;53.36;99209.34;10453500;28;20106;-49
2021/01/21 01:53:02;;;;;;;5.22;1.83;;;;;;;-9.77;53.32;99209.38;10463464;28;20048;-55
2021/01/21 01:58:05;;;;;;;4.63;2.10;;;;;;;-9.85;53.59;99201.03;10498523;28;20102;-48
2021/01/21 02:03:22;;;;;;;4.60;1.50;;;;;;;-10.04;53.55;99196.97;10476560;28;20123;-48
2021/01/21 02:08:45;;;;;;;3.87;1.43;;;;;;;-10.15;53.89;99206.41;10453250;28;20218;-47
2021/01/21 02:13:54;;;;;;;11.70;2.92;;;;;;;-10.17;54.15;99196.25;10452556;28;20045;-51
2021/01/21 02:19:24;;;;;;;2.75;1.08;;;;;;;-10.20;54.62;99194.56;10452775;28;20086;-48
2021/01/21 02:25:04;;;;;;;5.45;2.60;;;;;;;-10.16;54.40;99189.47;10456406;28;20075;-48
2021/01/21 02:30:16;;;;;;;4.60;1.33;;;;;;;-10.20;54.02;99179.31;10459684;28;20044;-47
2021/01/21 02:35:24;;;;;;;2.00;1.03;;;;;;;-10.24;54.03;99180.22;10419300;28;20080;-49
2021/01/21 02:40:28;;;;;;;3.53;1.67;;;;;;;-10.29;54.22;99166.75;10418889;28;20049;-47
2021/01/21 02:45:50;;;;;;;6.82;1.83;;;;;;;-10.31;54.37;99168.47;10418483;28;20092;-47
2021/01/21 02:51:01;;;;;;;4.43;1.80;;;;;;;-10.28;54.79;99165.03;10417950;28;20398;-48
2021/01/21 02:56:09;;;;;;;4.23;1.63;;;;;;;-10.37;54.92;99166.00;10417536;28;20042;-48
2021/01/21 03:01:25;;;;;;;6.00;2.23;;;;;;;-10.48;54.58;99157.63;10418977;28;20072;-46
2021/01/21 03:06:35;;;;;;;5.00;2.50;;;;;;;-10.51;54.98;99150.84;10457955;28;20402;-50
2021/01/21 03:11:40;;;;;;;10.30;3.43;;;;;;;-10.48;54.81;99139.84;10458403;28;20077;-47
2021/01/21 03:16:43;;;;;;;4.25;2.28;;;;;;;-10.36;54.49;99133.78;10457642;28;20211;-47
2021/01/21 03:21:47;;;;;;;7.53;2.13;;;;;;;-10.25;54.90;99122.63;10457656;28;20148;-47
2021/01/21 03:26:55;;;;;;;6.07;2.63;;;;;;;-10.28;54.97;99125.25;10440691;28;20099;-48
2021/01/21 03:31:57;;;;;;;3.00;1.03;;;;;;;-10.31;54.75;99104.94;10457740;28;20122;-47
2021/01/21 03:37:05;;;;;;;10.70;3.13;;;;;;;-10.32;55.31;99104.94;10458323;28;20049;-52
2021/01/21 03:42:11;;;;;;;8.57;2.97;;;;;;;-10.29;55.35;99098.13;10459513;28;20174;-49
2021/01/21 03:47:23;;;;;;;5.63;2.27;;;;;;;-10.25;55.01;99092.13;10456783;28;20044;-47
2021/01/21 03:52:35;;;;;;;7.00;2.55;;;;;;;-10.29;54.64;99076.97;10455908;28;20126;-48
2021/01/21 03:57:41;;;;;;;4.30;1.63;;;;;;;-10.23;55.32;99059.06;10455638;28;20056;-47
2021/01/21 04:02:53;;;;;;;6.13;2.50;;;;;;;-10.23;54.86;99051.44;10455005;28;20056;-49
2021/01/21 04:08:25;;;;;;;4.73;1.90;;;;;;;-10.17;54.95;99037.81;10454862;28;20152;-48
2021/01/21 04:13:35;;;;;;;4.13;2.07;;;;;;;-10.22;54.58;99031.09;10455786;28;20049;-47
2021/01/21 04:18:46;;;;;;;4.97;1.97;;;;;;;-10.29;54.50;99026.13;10455472;28;20474;-47
2021/01/21 04:23:59;;;;;;;7.63;2.22;;;;;;;-10.39;55.06;99010.16;10455752;28;20062;-49
2021/01/21 04:29:08;;;;;;;3.33;1.40;;;;;;;-10.35;54.36;99000.78;10455403;28;20083;-48
2021/01/21 04:34:11;;;;;;;5.50;2.07;;;;;;;-10.38;54.68;99006.75;10459325;28;20496;-48
2021/01/21 04:39:14;;;;;;;;;;;;;;;-10.40;54.73;99008.50;10456541;28;20205;-48
2021/01/21 04:44:20;;;;;;;3.17;1.47;;;;;;;-10.49;54.63;98996.72;10457441;28;19925;-47
2021/01/21 04:49:42;;;;;;;2.63;1.27;;;;;;;-10.52;54.20;99001.00;10457970;28;20060;-47
2021/01/21 04:54:55;;;;;;;7.22;1.98;;;;;;;-10.51;54.89;99002.69;10457714;28;20101;-47
2021/01/21 05:00:06;;;;;;;3.17;1.07;;;;;;;-10.55;55.16;98993.41;10457039;28;20076;-47
2021/01/21 05:05:28;;;;;;;6.53;1.90;;;;;;;-10.49;55.19;98990.81;10456845;28;20064;-48
2021/01/21 05:10:32;;;;;;;5.93;2.17;;;;;;;-10.49;55.13;98984.03;10456964;28;20053;-49
2021/01/21 05:15:38;;;;;;;5.87;2.80;;;;;;;-10.42;55.15;98987.31;10456931;28;20068;-48
2021/01/21 05:21:00;;;;;;;5.10;3.03;;;;;;;-10.37;55.33;98983.03;10460917;28;20099;-52
2021/01/21 05:26:23;;;;;;;6.17;1.90;;;;;;;-10.31;55.98;98982.97;10458324;28;20374;-50
2021/01/21 05:31:38;;;;;;;4.47;1.90;;;;;;;-10.22;56.00;98962.47;10457009;28;20053;-48
2021/01/21 05:36:44;;;;;;;4.13;1.52;;;;;;;-10.20;56.17;98960.75;10456392;28;20134;-49
2021/01/21 05:41:55;;;;;;;3.23;1.40;;;;;;;-10.12;55.77;98955.56;10457299;28;20049;-48
2021/01/21 05:47:10;;;;;;;3.33;1.45;;;;;;;-10.04;56.22;98948.66;10456883;28;20044;-50
2021/01/21 05:52:14;;;;;;;4.40;1.37;;;;;;;-9.89;56.19;98945.06;10456581;28;20048;-48
2021/01/21 05:57:20;;;;;;;2.07;0.80;;;;;;;-9.75;56.45;98935.53;10459502;28;20094;-49
2021/01/21 06:02:23;;;;;;;11.67;2.23;;;;;;;-9.65;56.14;98932.84;10465035;28;20049;-48
2021/01/21 06:07:33;;;;;;;9.27;2.33;;;;;;;-9.48;56.25;98905.41;10463996;28;20144;-53
2021/01/21 06:12:37;;;;;;;6.55;2.05;;;;;;;-9.34;56.19;98912.81;10463872;28;20057;-52
2021/01/21 06:17:38;;;;;;;6.38;1.48;;;;;;;-9.30;56.22;98902.56;10464920;28;20044;-48
2021/01/21 06:23:04;;;;;;;4.07;1.47;;;;;;;-9.16;56.87;98888.72;10465233;28;20045;-49
2021/01/21 06:28:11;;;;;;;5.65;2.40;;;;;;;-9.15;56.41;98882.75;10463120;28;20044;-48
2021/01/21 06:33:16;;;;;;;5.22;2.05;;;;;;;-9.05;56.64;98884.25;10464207;28;20052;-50
2021/01/21 06:38:20;;;;;;;6.93;2.47;;;;;;;-9.11;56.08;98866.53;10464809;28;20064;-49
2021/01/21 06:43:25;;;;;;;6.68;2.75;;;;;;;-9.02;56.47;98861.28;10464340;28;20065;-48
2021/01/21 06:48:27;;;;;;;6.03;2.60;;;;;;;-8.88;57.08;98855.94;10463131;28;20044;-50
2021/01/21 06:53:29;;;;;;;8.03;2.90;;;;;;;-8.83;56.72;98854.13;10463098;28;20481;-48
2021/01/21 06:58:52;;;;;;;9.23;2.38;;;;;;;-8.62;57.29;98853.69;10463099;28;20051;-51
2021/01/21 07:03:54;;;;;;;10.70;3.17;;;;;;;-8.33;57.21;98849.63;10462798;28;20065;-48
2021/01/21 07:09:04;;;;;;;4.47;2.00;;;;;;;-8.10;57.63;98836.31;10460891;28;20536;-49
2021/01/21 07:14:10;;;;;;;8.80;2.35;;;;;;;-8.05;57.52;98829.41;10464688;28;20052;-62
2021/01/21 07:19:13;;;;;;;9.25;2.72;;;;;;;-7.98;57.41;98815.63;10463588;28;20041;-53
2021/01/21 07:24:16;;;;;;;6.70;2.50;;;;;;;-7.97;57.61;98812.22;10476601;28;20191;-48
2021/01/21 07:29:20;;;;;;;8.02;2.25;;;;;;;-7.93;58.08;98792.56;10502327;28;20045;-48
2021/01/21 07:34:21;;;;;;;6.20;2.65;;;;;;;-7.92;57.98;98800.16;10501285;28;20053;-48
2021/01/21 07:39:54;;;;;;;4.95;1.92;;;;;;;-7.91;58.00;98791.66;10503175;28;20366;-48
2021/01/21 07:44:58;;;;;;;9.05;2.70;;;;;;;-7.88;57.86;98771.19;10502750;28;20059;-50
2021/01/21 07:50:35;;;;;;;8.23;2.92;;;;;;;-7.80;58.08;98770.13;10502565;28;20051;-50
2021/01/21 07:55:38;;;;;;;6.22;2.20;;;;;;;-7.54;58.72;98754.97;10501802;28;20052;-48
2021/01/21 08:00:41;;;;;;;;;;;;;;;-7.35;58.36;98759.59;10502180;28;20059;-49
2021/01/21 08:05:43;;;;;;;7.40;3.25;;;;;;;-7.27;58.59;98748.25;10502226;28;19934;-48
2021/01/21 08:10:44;;;;;;;10.40;4.45;;;;;;;-7.22;58.90;98740.47;10501548;28;20054;-48
2021/01/21 08:15:53;;;;;;;5.13;2.65;;;;;;;-7.05;59.12;98742.53;10501303;28;20489;-49
2021/01/21 08:20:55;;;;;;;4.95;1.85;;;;;;;-7.06;59.17;98723.81;10500870;28;20139;-49
2021/01/21 08:25:56;;;;;;;8.80;3.33;;;;;;;-7.02;59.42;98722.00;10500774;28;20147;-49
2021/01/21 08:30:59;;;;;;;12.95;5.32;;;;;;;-6.99;59.41;98716.78;10502159;28;20054;-49
2021/01/21 08:36:04;;;;;;;6.83;2.93;;;;;;;-7.02;59.14;98707.53;10502216;28;20059;-50
2021/01/21 08:41:07;;;;;;;8.68;2.42;;;;;;;-7.03;59.40;98684.56;10504158;28;20049;-48
2021/01/21 08:46:18;;;;;;;11.60;4.65;;;;;;;-7.01;58.78;98668.31;10501781;28;20052;-50
2021/01/21 08:51:28;;;;;;;5.18;2.20;;;;;;;-6.97;58.90;98664.78;10501139;28;20090;-48
2021/01/21 08:56:30;;;;;;;7.10;2.22;;;;;;;-6.93;58.87;98655.28;10500501;28;20055;-48
2021/01/21 09:01:44;;;;;;;9.98;4.00;;;;;;;-6.91;58.35;98640.75;10500537;28;20068;-52
2021/01/21 09:06:45;;;;;;;6.95;3.20;;;;;;;-6.88;58.45;98629.59;10500609;28;20059;-48
2021/01/21 09:11:48;;;;;;;7.30;2.37;;;;;;;-6.86;58.57;98626.13;10500015;28;20059;-48
2021/01/21 09:16:52;;;;;;;6.93;3.85;;;;;;;-6.80;58.28;98607.22;10500704;28;20051;-49
2021/01/21 09:22:00;;;;;;;7.18;2.90;;;;;;;-6.66;58.68;98587.13;10499825;28;20117;-49
2021/01/21 09:27:09;;;;;;;6.13;2.30;;;;;;;-6.49;58.28;98577.19;10500370;28;20055;-49
2021/01/21 09:32:12;;;;;;;13.30;5.13;;;;;;;-6.36;58.48;98569.91;10501436;28;20052;-48
2021/01/21 09:37:14;;;;;;;6.37;2.80;;;;;;;-6.27;58.10;98568.75;10509731;28;20075;-58
2021/01/21 09:42:16;;;;;;;8.57;4.13;;;;;;;-6.24;57.92;98562.72;10509978;28;20052;-48
2021/01/21 09:47:19;;;;;;;9.65;3.67;;;;;;;-6.20;57.95;98564.25;10507398;28;20047;-51
2021/01/21 09:52:21;;;;;;;9.20;3.13;;;;;;;-6.07;58.44;98557.81;10507760;28;20063;-50
2021/01/21 09:57:23;;;;;;;6.28;2.90;;;;;;;-6.04;57.51;98545.72;10510280;28;20114;-48
2021/01/21 10:02:26;;;;;;;12.50;4.50;;;;;;;-5.99;57.76;98543.03;10507066;28;20070;-49
2021/01/21 10:07:28;;;;;;;;;;;;;;;-5.89;57.90;98528.13;10507388;28;20127;-48
2021/01/21 10:12:29;;;;;;;13.57;5.75;;;;;;;-5.84;57.73;98513.44;10506790;28;20326;-48
2021/01/21 10:17:32;;;;;;;8.02;3.85;;;;;;;-5.76;57.70;98511.41;10506882;28;20135;-48
2021/01/21 10:22:34;;;;;;;11.37;3.57;;;;;;;-5.67;57.66;98508.50;10506228;28;20048;-49
2021/01/21 10:27:36;;;;;;;12.40;5.00;;;;;;;-5.55;58.10;98499.50;10506061;28;20135;-50
2021/01/21 10:32:39;;;;;;;13.95;5.57;;;;;;;-5.40;57.96;98500.63;10506891;28;20066;-49
2021/01/21 10:37:40;;;;;;;18.27;8.03;;;;;;;-5.14;58.31;98489.34;10508352;28;20046;-48
2021/01/21 10:42:42;;;;;;;18.38;5.65;;;;;;;-4.90;58.00;98474.66;10504927;28;20063;-49
2021/01/21 10:47:45;;;;;;;21.65;7.30;;;;;;;-4.80;58.13;98475.97;10509941;28;20060;-49
2021/01/21 10:52:47;;;;;;;14.70;6.10;;;;;;;-4.70;58.00;98461.03;10508553;28;20053;-48
2021/01/21 10:57:51;;;;;;;16.55;4.85;;;;;;;-4.63;58.01;98457.28;10507413;28;20079;-48
2021/01/21 11:02:53;;;;;;;10.90;4.60;;;;;;;-4.70;57.74;98450.75;10503562;28;20103;-48
2021/01/21 11:07:55;;;;;;;13.97;5.50;;;;;;;-4.72;57.55;98450.00;10503372;28;20053;-48
2021/01/21 11:12:57;;;;;;;16.50;6.45;;;;;;;-4.73;57.53;98440.63;10503964;28;20388;-49
2021/01/21 11:18:00;;;;;;;4.22;1.88;;;;;;;-4.73;57.84;98431.22;10503994;28;20040;-49
2021/01/21 11:23:02;;;;;;;11.65;5.43;;;;;;;-4.72;57.69;98421.78;10503856;28;20056;-48
2021/01/21 11:28:04;;;;;;;13.57;5.38;;;;;;;-4.79;57.25;98417.84;10504282;28;20466;-49
2021/01/21 11:33:06;;;;;;;17.10;6.80;;;;;;;-4.81;57.53;98410.19;10510153;28;20072;-49
2021/01/21 11:38:08;;;;;;;19.57;7.53;;;;;;;-4.77;57.35;98401.50;10503866;28;20036;-48
2021/01/21 11:43:10;;;;;;;8.00;4.13;;;;;;;-4.72;57.19;98396.97;10503759;28;20127;-49
2021/01/21 11:48:13;;;;;;;16.45;7.10;;;;;;;-4.70;57.24;98392.63;10503750;28;20048;-48
2021/01/21 11:53:14;;;;;;;21.67;8.67;;;;;;;-4.60;57.44;98399.91;10503559;28;20086;-49
2021/01/21 11:58:16;;;;;;;16.00;6.97;;;;;;;-4.58;57.21;98393.81;10503016;28;20098;-48
2021/01/21 12:03:19;;;;;;;17.45;8.40;;;;;;;-4.58;57.09;98382.72;10502392;28;20507;-48
2021/01/21 12:08:20;;;;;;;15.37;5.43;;;;;;;-4.56;56.87;98388.59;10502632;28;20132;-49
2021/01/21 12:13:22;;;;;;;14.23;5.93;;;;;;;-4.47;57.05;98381.31;10506076;28;20044;-54
2021/01/21 12:18:25;;;;;;;28.17;8.57;;;;;;;-4.35;57.11;98397.06;10503781;28;20068;-50
2021/01/21 12:23:26;;;;;;;18.70;7.17;;;;;;;-4.23;56.82;98383.69;10501916;28;20084;-49
2021/01/21 12:28:28;;;;;;;27.08;9.88;;;;;;;-4.24;56.49;98370.03;10502056;28;20074;-48
2021/01/21 12:33:31;;;;;;;21.65;6.72;;;;;;;-4.14;56.93;98377.28;10502269;28;20055;-49
2021/01/21 12:38:33;;;;;;;16.67;6.85;;;;;;;-4.08;56.86;98387.28;10502097;28;20112;-48
2021/01/21 12:43:34;;;;;;;26.40;10.43;;;;;;;-4.02;56.68;98376.72;10501147;28;20576;-49
2021/01/21 12:48:37;;;;;;;22.00;8.98;;;;;;;-3.98;56.36;98383.34;10500616;28;20496;-49
2021/01/21 12:53:39;;;;;;;20.63;7.70;;;;;;;-4.02;56.32;98372.41;10499866;28;20057;-48
2021/01/21 12:58:40;;;;;;;22.90;9.07;;;;;;;-4.02;56.30;98385.25;10501648;28;20571;-48
2021/01/21 13:03:43;;;;;;;26.63;9.88;;;;;;;-4.08;56.23;98388.09;10499178;28;20367;-48
2021/01/21 13:08:45;;;;;;;23.07;10.40;;;;;;;-4.05;56.40;98371.72;10499350;28;20040;-48
2021/01/21 13:13:47;;;;;;;14.82;6.38;;;;;;;-4.01;56.22;98375.81;10500905;28;20075;-53
2021/01/21 13:18:50;;;;;;;14.00;6.23;;;;;;;-4.05;56.14;98382.00;10500034;28;20473;-50
2021/01/21 13:23:53;;;;;;;19.67;8.47;;;;;;;-3.99;55.99;98386.84;10501934;28;20055;-49
2021/01/21 13:28:56;;;;;;;20.35;8.27;;;;;;;-4.04;55.97;98387.03;10506483;28;20048;-49
2021/01/21 13:33:58;;;;;;;19.95;8.73;;;;;;;-4.03;55.70;98387.91;10502384;28;20052;-52
2021/01/21 13:39:00;;;;;;;26.23;10.13;;;;;;;-3.87;55.75;98391.41;10502334;28;20131;-51
2021/01/21 13:44:01;;;;;;;18.17;8.18;;;;;;;-3.67;55.50;98399.88;10500166;28;20084;-49
2021/01/21 13:49:09;;;;;;;25.13;9.20;;;;;;;-3.57;55.38;98395.94;10502649;28;20055;-59
2021/01/21 13:54:10;;;;;;;20.50;9.43;;;;;;;-3.51;55.23;98399.06;10501219;28;20504;-49
2021/01/21 13:59:12;;;;;;;22.90;9.38;;;;;;;-3.41;55.02;98386.59;10497704;28;20137;-48
2021/01/21 14:04:15;;;;;;;21.25;8.45;;;;;;;-3.45;55.09;98389.38;10498675;28;20087;-49
2021/01/21 14:09:16;;;;;;;16.23;6.83;;;;;;;-3.45;54.84;98392.78;10499221;28;20101;-48
2021/01/21 14:14:18;;;;;;;19.65;8.13;;;;;;;-3.42;54.96;98395.19;10499453;28;20052;-48
2021/01/21 14:19:21;;;;;;;23.60;10.23;;;;;;;-3.40;54.92;98405.41;10503935;28;20044;-49
2021/01/21 14:24:23;;;;;;;24.50;10.93;;;;;;;-3.38;54.43;98398.47;10506491;28;20071;-49
2021/01/21 14:29:25;;;;;;;22.50;8.73;;;;;;;-3.37;54.51;98400.13;10506027;28;20041;-49
2021/01/21 14:34:28;;;;;;;23.63;10.38;;;;;;;-3.40;54.56;98401.09;10506949;28;20058;-49
2021/01/21 14:39:29;;;;;;;21.60;9.23;;;;;;;-3.39;54.57;98394.22;10506626;28;20044;-50
2021/01/21 14:44:31;;;;;;;23.50;10.50;;;;;;;-3.43;54.68;98405.56;10506411;28;20135;-50
2021/01/21 14:49:34;;;;;;;21.20;9.43;;;;;;;-3.39;54.75;98407.88;10506606;28;20136;-49
2021/01/21 14:54:35;;;;;;;20.83;10.40;;;;;;;-3.30;54.62;98406.59;10505463;28;20052;-49
2021/01/21 14:59:37;;;;;;;26.63;9.98;;;;;;;-3.20;54.41;98406.97;10507373;28;20384;-50
2021/01/21 15:04:41;;;;;;;26.00;11.18;;;;;;;-3.17;54.36;98417.09;10505845;28;20084;-48
2021/01/21 15:09:43;;;;;;;27.02;10.50;;;;;;;-3.17;54.44;98411.97;10505068;28;20045;-48
2021/01/21 15:14:45;;;;;;;24.42;11.50;;;;;;;-3.12;54.29;98410.84;10476409;28;20045;-48
2021/01/21 15:19:48;;;;;;;29.80;11.65;;;;;;;-3.15;54.17;98405.84;10460849;28;20056;-50
2021/01/21 15:24:51;;;;;;;31.02;11.10;;;;;;;-3.17;54.08;98401.69;10461375;28;20136;-48
2021/01/21 15:29:52;;;;;;;30.55;12.35;;;;;;;-3.21;54.18;98398.44;10462850;28;20525;-53
2021/01/21 15:34:55;;;;;;;24.45;10.75;;;;;;;-3.30;54.30;98397.16;10466370;28;20151;-49
2021/01/21 15:39:57;;;;;;;27.33;10.43;;;;;;;-3.34;54.30;98389.69;10461743;28;20041;-48
2021/01/21 15:44:58;;;;;;;30.05;11.77;;;;;;;-3.31;54.50;98389.53;10460769;28;20214;-48
2021/01/21 15:50:01;;;;;;;30.95;12.98;;;;;;;-3.28;54.41;98386.81;10459677;28;20041;-48
2021/01/21 15:55:03;;;;;;;31.03;12.83;;;;;;;-3.28;54.37;98374.78;10460241;28;20053;-48
2021/01/21 16:00:06;;;;;;;31.13;13.25;;;;;;;-3.37;54.66;98382.97;10458930;28;20110;-49
2021/01/21 16:05:10;;;;;;;34.00;14.02;;;;;;;-3.40;54.74;98380.53;10459320;28;20041;-48
2021/01/21 16:10:12;;;;;;;;;;;;;;;-3.39;54.83;98383.94;10460046;28;20052;-48
2021/01/21 16:15:14;;;;;;;31.80;11.57;;;;;;;-3.47;55.08;98374.88;10457437;28;19925;-48
2021/01/21 16:20:18;;;;;;;29.00;13.00;;;;;;;-3.50;55.16;98372.47;10455835;28;20140;-47
2021/01/21 16:25:19;;;;;;;36.13;13.63;;;;;;;-3.46;55.31;98375.72;10415831;28;20168;-48
2021/01/21 16:30:22;;;;;;;37.33;14.65;;;;;;;-3.44;55.37;98379.03;10417116;28;20063;-49
2021/01/21 16:35:25;;;;;;;35.40;14.75;;;;;;;-3.35;55.54;98381.16;10417178;28;20135;-49
2021/01/21 16:40:27;;;;;;;38.13;14.87;;;;;;;-3.29;55.36;98380.84;10425817;28;20073;-48
2021/01/21 16:45:29;;;;;;;28.95;13.18;;;;;;;-3.24;55.21;98391.72;10418875;28;20045;-48
2021/01/21 16:50:31;;;;;;;40.05;15.07;;;;;;;-3.15;55.59;98392.16;10417571;28;20417;-56
2021/01/21 16:55:33;;;;;;;36.85;13.85;;;;;;;-3.17;55.13;98394.84;10415452;28;20045;-51
2021/01/21 17:00:35;;;;;;;32.08;14.27;;;;;;;-3.12;55.29;98392.00;10417449;28;20140;-49
2021/01/21 17:05:37;;;;;;;34.83;13.80;;;;;;;-3.03;54.91;98394.13;10416480;28;20063;-49
2021/01/21 17:10:39;;;;;;;37.78;14.23;;;;;;;-2.95;55.23;98380.88;10427587;28;20139;-48
2021/01/21 17:15:41;;;;;;;30.95;14.02;;;;;;;-2.90;55.20;98400.28;10415410;28;20099;-50
2021/01/21 17:20:43;;;;;;;33.78;14.93;;;;;;;-2.87;55.15;98402.69;10423319;28;20041;-49
2021/01/21 17:25:46;;;;;;;35.22;14.45;;;;;;;-2.91;54.81;98398.63;10459475;28;20545;-49
2021/01/21 17:30:48;;;;;;;36.00;15.23;;;;;;;-2.91;55.03;98410.66;10457565;28;20052;-48
2021/01/21 17:35:51;;;;;;;39.90;15.88;;;;;;;-2.92;54.95;98417.56;10465523;28;20489;-53
2021/01/21 17:40:53;;;;;;;35.60;14.95;;;;;;;-2.84;54.69;98428.25;10464358;28;20049;-48
2021/01/21 17:45:55;;;;;;;28.43;11.93;;;;;;;-2.76;55.17;98432.22;10464213;28;20404;-49
2021/01/21 17:50:59;;;;;;;25.57;12.07;;;;;;;-2.70;54.54;98432.72;10467494;28;20056;-50
2021/01/21 17:56:00;;;;;;;34.53;14.97;;;;;;;-2.69;54.10;98423.25;10464735;28;20060;-48
2021/01/21 18:01:03;;;;;;;27.20;14.25;;;;;;;-2.69;54.41;98436.13;10464258;28;20061;-48
2021/01/21 18:06:06;;;;;;;36.73;15.07;;;;;;;-2.69;54.68;98434.38;10464363;28;20048;-47
2021/01/21 18:11:08;;;;;;;29.33;11.60;;;;;;;-2.62;54.78;98429.72;10464558;28;20446;-47
2021/01/21 18:16:10;;;;;;;36.58;15.40;;;;;;;-2.65;54.45;98423.03;10464041;28;20045;-48
2021/01/21 18:21:14;;;;;;;37.10;15.73;;;;;;;-2.69;54.88;98433.53;10465105;28;20073;-50
2021/01/21 18:26:16;;;;;;;36.25;14.38;;;;;;;-2.67;55.33;98432.56;10463340;28;20053;-50
2021/01/21 18:31:18;;;;;;;34.38;15.35;;;;;;;-2.51;55.09;98431.75;10462731;28;20041;-49
2021/01/21 18:36:20;;;;;;;40.00;15.75;;;;;;;-2.46;55.03;98430.63;10462786;28;20059;-49
2021/01/21 18:41:22;;;;;;;36.55;15.40;;;;;;;-2.54;54.81;98432.75;10463752;28;20430;-49
2021/01/21 18:46:24;;;;;;;37.22;15.90;;;;;;;-2.48;55.27;98431.59;10462294;28;20478;-50
2021/01/21 18:51:26;;;;;;;31.42;15.35;;;;;;;-2.46;55.32;98429.75;10461711;28;20079;-48
2021/01/21 18:56:28;;;;;;;31.87;13.27;;;;;;;-2.52;55.46;98423.22;10461794;28;20373;-48
2021/01/21 19:01:30;;;;;;;36.95;15.30;;;;;;;-2.43;55.57;98433.03;10460497;28;20064;-48
2021/01/21 19:06:32;;;;;;;38.58;17.00;;;;;;;-2.39;55.41;98442.25;10459879;28;20049;-50
2021/01/21 19:11:34;;;;;;;34.38;15.80;;;;;;;-2.28;55.50;98445.97;10461802;28;20457;-49
2021/01/21 19:16:36;;;;;;;42.05;17.77;;;;;;;-2.27;55.09;98445.09;10458356;28;20057;-49
2021/01/21 19:21:38;;;;;;;32.45;15.30;;;;;;;-2.24;55.11;98447.50;10459023;28;20055;-56
2021/01/21 19:26:40;;;;;;;37.97;16.02;;;;;;;-2.28;55.29;98439.09;10459892;28;20144;-49
2021/01/21 19:31:42;;;;;;;41.00;16.30;;;;;;;-2.27;55.14;98434.78;10458996;28;20135;-47
2021/01/21 19:36:44;;;;;;;38.42;16.70;;;;;;;-2.22;55.54;98450.81;10462802;28;20370;-48
2021/01/21 19:41:46;;;;;;;39.20;15.93;;;;;;;-2.20;55.39;98451.56;10459398;28;20493;-49
2021/01/21 19:46:48;;;;;;;36.47;16.67;;;;;;;-2.13;55.31;98442.59;10463568;28;20397;-48
2021/01/21 19:51:51;;;;;;;40.78;16.98;;;;;;;-2.08;55.64;98448.34;10458420;28;20048;-49
2021/01/21 19:56:55;;;;;;;40.80;16.70;;;;;;;-1.99;55.80;98455.56;10459367;28;20052;-49
2021/01/21 20:01:56;;;;;;;39.65;17.17;;;;;;;-1.94;55.79;98458.72;10458621;28;20069;-48
2021/01/21 20:06:59;;;;;;;38.95;17.05;;;;;;;-1.88;55.68;98465.28;10458301;28;20385;-51
2021/01/21 20:12:01;;;;;;;38.23;17.50;;;;;;;-1.84;55.54;98446.19;10459190;28;20131;-56
2021/01/21 20:17:02;;;;;;;38.80;17.00;;;;;;;-1.77;55.60;98439.78;10457934;28;20072;-49
2021/01/21 20:22:05;;;;;;;32.47;15.98;;;;;;;-1.75;55.64;98450.00;10457986;28;20059;-50
2021/01/21 20:27:07;;;;;;;35.43;16.73;;;;;;;-1.68;55.45;98459.06;10457798;28;20053;-49
2021/01/21 20:32:09;;;;;;;36.28;16.15;;;;;;;-1.66;55.73;98467.53;10459256;28;20105;-50
2021/01/21 20:37:12;;;;;;;47.58;17.30;;;;;;;-1.68;55.60;98474.50;10457992;28;20037;-49
2021/01/21 20:42:13;;;;;;;43.92;19.02;;;;;;;-1.64;55.65;98481.16;10456733;28;20398;-48
2021/01/21 20:47:15;;;;;;;39.55;15.25;;;;;;;-1.61;55.57;98468.09;10455962;28;20037;-49
2021/01/21 20:52:18;;;;;;;33.42;15.85;;;;;;;-1.60;55.63;98472.34;10455503;28;20064;-49
2021/01/21 20:57:19;;;;;;;40.45;16.35;;;;;;;-1.62;55.44;98474.16;10456603;28;20052;-47
2021/01/21 21:02:22;;;;;;;39.38;15.57;;;;;;;-1.65;55.48;98458.88;10456618;28;20071;-50
2021/01/21 21:07:25;;;;;;;31.70;13.70;;;;;;;-1.71;55.99;98465.19;10456035;28;20045;-49
2021/01/21 21:12:26;;;;;;;45.90;20.30;;;;;;;-1.72;55.52;98468.69;10452248;28;20135;-49
2021/01/21 21:17:28;;;;;;;39.70;17.45;;;;;;;-1.66;55.83;98491.56;10456339;28;20525;-49
2021/01/21 21:22:30;;;;;;;40.25;16.38;;;;;;;-1.67;55.89;98481.31;10457992;28;20470;-48
2021/01/21 21:27:32;;;;;;;39.30;17.90;;;;;;;-1.71;55.92;98469.53;10464753;28;20051;-49
2021/01/21 21:32:34;;;;;;;35.60;16.80;;;;;;;-1.68;55.95;98469.34;10470097;28;20139;-50
2021/01/21 21:37:36;;;;;;;44.75;18.05;;;;;;;-1.63;55.72;98472.53;10466900;28;20395;-49
2021/01/21 21:42:38;;;;;;;42.47;18.13;;;;;;;-1.59;55.88;98475.75;10469517;28;20537;-48
2021/01/21 21:47:40;;;;;;;42.72;18.63;;;;;;;-1.53;55.66;98476.25;10469548;28;20485;-50
2021/01/21 21:52:42;;;;;;;37.83;17.27;;;;;;;-1.50;55.18;98483.81;10470052;28;20049;-49
2021/01/21 21:57:44;;;;;;;37.80;17.25;;;;;;;-1.48;55.64;98494.00;10456072;28;20038;-49
2021/01/21 22:02:46;;;;;;;42.50;17.65;;;;;;;-1.42;55.58;98491.09;10435270;28;20544;-49
2021/01/21 22:07:48;;;;;;;40.88;18.77;;;;;;;-1.44;55.83;98498.94;10429819;28;20529;-50
2021/01/21 22:12:50;;;;;;;41.83;18.48;;;;;;;-1.33;55.69;98495.75;10453126;28;20067;-49
2021/01/21 22:17:52;;;;;;;43.78;19.25;;;;;;;-1.23;55.72;98496.03;10509209;28;20139;-48
2021/01/21 22:22:55;;;;;;;46.83;19.10;;;;;;;-1.21;55.96;98494.22;10510473;28;20048;-50
2021/01/21 22:27:56;;;;;;;35.30;15.57;;;;;;;-1.14;55.75;98490.38;10510209;28;20061;-50
2021/01/21 22:32:58;;;;;;;41.40;16.85;;;;;;;-1.08;55.96;98490.03;10509742;28;20062;-53
2021/01/21 22:38:02;;;;;;;44.85;18.58;;;;;;;-1.19;56.06;98489.81;10483085;28;20102;-50
2021/01/21 22:43:04;;;;;;;45.40;19.17;;;;;;;-1.24;56.15;98490.06;10494693;28;20110;-50
2021/01/21 22:48:06;;;;;;;47.00;18.98;;;;;;;-1.38;56.27;98481.47;10470790;28;20144;-49
2021/01/21 22:53:09;;;;;;;41.38;19.20;;;;;;;-1.48;55.90;98465.66;10463711;28;20534;-49
2021/01/21 22:58:11;;;;;;;41.28;18.63;;;;;;;-1.60;56.26;98474.06;10461081;28;20132;-49
2021/01/21 23:03:13;;;;;;;42.67;18.85;;;;;;;-1.77;56.43;98480.16;10461288;28;20061;-49
2021/01/21 23:08:15;;;;;;;41.45;18.98;;;;;;;-1.84;56.89;98489.97;10462499;28;20111;-49
2021/01/21 23:13:17;;;;;;;44.08;19.98;;;;;;;-1.74;57.05;98485.16;10462806;28;20064;-48
2021/01/21 23:18:20;;;;;;;40.50;17.00;;;;;;;-1.82;57.16;98482.97;10467047;28;20056;-48